Time;durP1;ratioP1;P1;durP2;ratioP2;P2;SDS_P1;SDS_P2;PMS_P1;PMS_P2;Temp;Humidity;BMP_temperature;BMP_pressure;BME280_temperature;BME280_humidity;BME280_pressure;Samples;Min_cycle;Max_cycle;Signal;HPM_P1;HPM_P2
2023/09/28 00:00:38;;;;;;;11.65;9.90;;;18.40;99.90;;;;;;5074896;28;20477;-63
2023/09/28 00:03:05;;;;;;;14.05;10.93;;;18.40;99.90;;;;;;5070264;28;20053;-64
2023/09/28 00:05:32;;;;;;;13.55;9.52;;;18.40;99.90;;;;;;5053250;28;20053;-63
2023/09/28 00:08:01;;;;;;;11.90;9.60;;;18.40;99.90;;;;;;5053618;28;20569;-63
2023/09/28 00:10:28;;;;;;;13.10;10.77;;;18.40;99.90;;;;;;5054299;28;20041;-63
2023/09/28 00:12:54;;;;;;;13.07;9.50;;;18.30;99.90;;;;;;5053290;28;20125;-63
2023/09/28 00:15:21;;;;;;;12.43;9.90;;;18.40;99.90;;;;;;5052380;28;20049;-63
2023/09/28 00:17:47;;;;;;;12.13;9.73;;;18.40;99.90;;;;;;5053446;28;20106;-63
2023/09/28 00:20:17;;;;;;;10.90;9.00;;;18.40;99.90;;;;;;5086439;28;20041;-63
2023/09/28 00:22:54;;;;;;;12.00;9.95;;;18.40;99.90;;;;;;5052381;28;20064;-64
2023/09/28 00:25:22;;;;;;;12.63;9.35;;;18.40;99.90;;;;;;5053134;28;20056;-63
2023/09/28 00:27:52;;;;;;;14.07;9.68;;;18.30;99.90;;;;;;5064115;28;20052;-63
2023/09/28 00:30:22;;;;;;;10.98;9.05;;;18.30;99.90;;;;;;5072405;28;20363;-64
2023/09/28 00:32:50;;;;;;;11.02;9.25;;;18.30;99.90;;;;;;5072120;28;20128;-64
2023/09/28 00:35:17;;;;;;;10.48;9.00;;;18.30;99.90;;;;;;5072685;28;20120;-63
2023/09/28 00:37:43;;;;;;;13.30;9.48;;;18.30;99.90;;;;;;5072207;28;20193;-64
2023/09/28 00:40:18;;;;;;;11.05;8.82;;;18.30;99.90;;;;;;5073880;28;20040;-63
2023/09/28 00:42:49;;;;;;;11.93;9.10;;;18.20;99.90;;;;;;5072788;28;20547;-63
2023/09/28 00:45:16;;;;;;;12.75;9.98;;;18.30;99.90;;;;;;5071878;28;20048;-63
2023/09/28 00:47:42;;;;;;;11.77;8.82;;;18.20;99.90;;;;;;5072582;28;20049;-64
2023/09/28 00:50:14;;;;;;;12.18;8.75;;;18.20;99.90;;;;;;5072464;28;20086;-64
2023/09/28 00:52:46;;;;;;;11.02;8.85;;;18.20;99.90;;;;;;5072462;28;20059;-64
2023/09/28 00:55:15;;;;;;;12.15;8.68;;;18.20;99.90;;;;;;5072794;28;20040;-63
2023/09/28 00:57:44;;;;;;;10.65;7.97;;;18.20;99.90;;;;;;5072778;28;20040;-63
2023/09/28 01:00:28;;;;;;;10.00;7.80;;;18.20;99.90;;;;;;5071685;28;20048;-63
2023/09/28 01:02:58;;;;;;;9.35;7.93;;;18.20;99.90;;;;;;5071846;28;20032;-64
2023/09/28 01:05:26;;;;;;;12.35;8.43;;;18.20;99.90;;;;;;5071357;28;20067;-63
2023/09/28 01:07:53;;;;;;;11.48;8.52;;;18.10;99.90;;;;;;5072172;28;20250;-63
2023/09/28 01:10:25;;;;;;;11.63;9.18;;;18.10;99.90;;;;;;5073528;28;20058;-63
2023/09/28 01:12:51;;;;;;;10.02;8.52;;;18.10;99.90;;;;;;5072637;28;20059;-63
2023/09/28 01:15:17;;;;;;;10.82;8.30;;;18.10;99.90;;;;;;5072043;28;20051;-63
2023/09/28 01:17:43;;;;;;;9.82;7.72;;;18.00;99.90;;;;;;5071305;28;20049;-64
2023/09/28 01:20:35;;;;;;;11.10;9.00;;;18.00;99.90;;;;;;5070900;28;20476;-63
2023/09/28 01:22:56;;;;;;;12.20;8.02;;;18.00;99.90;;;;;;5071598;28;20102;-63
2023/09/28 01:25:22;;;;;;;10.27;7.90;;;18.00;99.90;;;;;;5068659;28;20049;-63
2023/09/28 01:27:49;;;;;;;10.85;8.68;;;17.90;99.90;;;;;;5050795;28;20056;-63
2023/09/28 01:30:16;;;;;;;11.10;8.70;;;18.00;99.90;;;;;;5052007;28;20091;-63
2023/09/28 01:32:42;;;;;;;10.95;8.30;;;17.90;99.90;;;;;;5051176;28;20049;-64
2023/09/28 01:35:09;;;;;;;10.38;8.52;;;17.90;99.90;;;;;;5051598;28;20478;-64
2023/09/28 01:37:51;;;;;;;11.55;7.85;;;17.90;99.90;;;;;;5051710;28;20037;-63
2023/09/28 01:40:17;;;;;;;10.85;8.88;;;17.90;99.90;;;;;;5050803;28;20055;-63
2023/09/28 01:42:43;;;;;;;8.98;7.65;;;17.90;99.90;;;;;;5051476;28;20494;-63
2023/09/28 01:45:09;;;;;;;8.80;7.85;;;17.90;99.90;;;;;;5052744;28;20127;-63
2023/09/28 01:47:35;;;;;;;11.82;8.48;;;17.80;99.90;;;;;;5066594;28;20056;-63
2023/09/28 01:50:03;;;;;;;11.40;8.20;;;17.80;99.90;;;;;;5058745;28;20052;-63
2023/09/28 01:52:28;;;;;;;12.85;8.30;;;17.80;99.90;;;;;;5051009;28;20111;-64
2023/09/28 01:54:54;;;;;;;11.00;8.23;;;17.70;99.90;;;;;;5055779;28;20497;-64
2023/09/28 01:57:20;;;;;;;12.35;8.35;;;17.70;99.90;;;;;;5070908;28;20041;-65
2023/09/28 01:59:46;;;;;;;11.02;7.88;;;17.70;99.90;;;;;;5070526;28;20036;-65
2023/09/28 02:02:12;;;;;;;9.65;7.93;;;17.60;99.90;;;;;;5070252;28;20040;-65
2023/09/28 02:04:38;;;;;;;11.52;8.27;;;17.70;99.90;;;;;;5071108;28;20051;-63
2023/09/28 02:07:04;;;;;;;11.48;8.38;;;17.60;99.90;;;;;;5067150;28;20040;-63
2023/09/28 02:09:30;;;;;;;10.10;7.53;;;17.60;99.90;;;;;;5065871;28;20166;-63
2023/09/28 02:11:57;;;;;;;11.82;8.48;;;17.60;99.90;;;;;;5070700;28;20044;-63
2023/09/28 02:14:23;;;;;;;10.70;8.13;;;17.60;99.90;;;;;;5071681;28;20115;-64
2023/09/28 02:16:50;;;;;;;10.95;7.72;;;17.60;99.90;;;;;;5070230;28;20173;-63
2023/09/28 02:19:16;;;;;;;10.82;7.57;;;17.50;99.90;;;;;;5070979;28;20044;-64
2023/09/28 02:21:42;;;;;;;10.57;8.25;;;17.50;99.90;;;;;;5070103;28;20068;-63
2023/09/28 02:24:09;;;;;;;10.63;7.30;;;17.50;99.90;;;;;;5071144;28;20040;-63
2023/09/28 02:26:34;;;;;;;10.93;7.97;;;17.50;99.90;;;;;;5071238;28;20428;-63
2023/09/28 02:29:00;;;;;;;11.32;8.55;;;17.50;99.90;;;;;;5053484;28;20118;-63
2023/09/28 02:31:27;;;;;;;10.98;7.88;;;17.50;99.90;;;;;;5070696;28;20088;-63
2023/09/28 02:33:53;;;;;;;11.40;8.77;;;17.50;99.90;;;;;;5072320;28;20049;-63
2023/09/28 02:36:19;;;;;;;12.55;7.45;;;17.50;99.90;;;;;;5050630;28;20041;-63
2023/09/28 02:38:45;;;;;;;9.63;7.47;;;17.50;99.90;;;;;;5067382;28;20087;-63
2023/09/28 02:41:17;;;;;;;10.65;7.97;;;17.40;99.90;;;;;;5050811;28;20048;-63
2023/09/28 02:43:43;;;;;;;11.27;8.25;;;17.30;99.90;;;;;;5055572;28;20125;-63
2023/09/28 02:46:09;;;;;;;12.70;8.27;;;17.30;99.90;;;;;;5064137;28;20076;-63
2023/09/28 02:48:35;;;;;;;10.30;7.25;;;17.30;99.90;;;;;;5064371;28;20079;-63
2023/09/28 02:51:18;;;;;;;9.70;7.55;;;17.30;99.90;;;;;;5039802;28;20068;-63
2023/09/28 02:53:44;;;;;;;10.43;7.78;;;17.20;99.90;;;;;;5050348;28;20158;-64
2023/09/28 02:56:12;;;;;;;11.25;8.20;;;17.20;99.90;;;;;;5050429;28;20052;-63
2023/09/28 02:58:38;;;;;;;10.98;8.77;;;17.20;99.90;;;;;;5049797;28;20478;-63
2023/09/28 03:01:04;;;;;;;10.25;7.45;;;17.20;99.90;;;;;;5050784;28;20155;-63
2023/09/28 03:03:30;;;;;;;12.93;8.43;;;17.10;99.90;;;;;;5050144;28;20099;-63
2023/09/28 03:06:01;;;;;;;9.73;7.53;;;17.00;99.90;;;;;;5056121;28;20046;-63
2023/09/28 03:08:27;;;;;;;9.98;7.28;;;17.10;99.90;;;;;;5049957;28;20040;-63
2023/09/28 03:10:53;;;;;;;13.48;8.13;;;17.00;99.90;;;;;;5050562;28;20048;-63
2023/09/28 03:13:19;;;;;;;12.80;7.80;;;17.00;99.90;;;;;;5050195;28;20040;-63
2023/09/28 03:15:45;;;;;;;10.48;7.25;;;17.00;99.90;;;;;;5060614;28;20048;-63
2023/09/28 03:18:14;;;;;;;10.52;7.25;;;17.00;99.90;;;;;;5052763;28;20119;-63
2023/09/28 03:20:44;;;;;;;10.40;7.70;;;16.90;99.90;;;;;;5064381;28;20041;-63
2023/09/28 03:23:11;;;;;;;9.95;7.90;;;17.00;99.90;;;;;;5050503;28;20041;-63
2023/09/28 03:25:37;;;;;;;12.05;8.10;;;16.90;99.90;;;;;;5049351;28;20077;-63
2023/09/28 03:28:03;;;;;;;10.40;7.82;;;16.90;99.90;;;;;;5053555;28;20126;-63
2023/09/28 03:30:30;;;;;;;12.55;7.85;;;16.80;99.90;;;;;;5044915;28;20530;-63
2023/09/28 03:32:56;;;;;;;10.65;7.32;;;16.90;99.90;;;;;;5071409;28;20489;-64
2023/09/28 03:35:22;;;;;;;11.07;8.35;;;16.80;99.90;;;;;;5075124;28;20043;-63
2023/09/28 03:37:53;;;;;;;11.18;8.88;;;16.80;99.90;;;;;;5073795;28;20097;-63
2023/09/28 03:40:19;;;;;;;11.07;8.02;;;16.80;99.90;;;;;;5073472;28;20044;-63
2023/09/28 03:42:49;;;;;;;11.13;8.10;;;16.70;99.90;;;;;;5061624;28;20454;-63
2023/09/28 03:45:20;;;;;;;10.80;8.30;;;16.70;99.90;;;;;;5033891;28;20045;-63
2023/09/28 03:47:51;;;;;;;11.43;9.15;;;16.60;99.90;;;;;;5034244;28;20049;-63
2023/09/28 03:50:17;;;;;;;12.10;9.43;;;16.60;99.90;;;;;;5049154;28;20481;-64
2023/09/28 03:52:46;;;;;;;10.60;8.35;;;16.60;99.90;;;;;;5073561;28;20051;-64
2023/09/28 03:55:14;;;;;;;10.90;8.30;;;16.60;99.90;;;;;;5066805;28;20044;-63
2023/09/28 03:57:44;;;;;;;13.38;8.25;;;16.50;99.90;;;;;;5053843;28;20080;-63
2023/09/28 04:00:14;;;;;;;10.73;8.10;;;16.50;99.90;;;;;;5054367;28;20044;-64
2023/09/28 04:02:41;;;;;;;13.35;8.32;;;16.50;99.90;;;;;;5053605;28;20044;-64
2023/09/28 04:05:08;;;;;;;11.20;7.65;;;16.50;99.90;;;;;;5053714;28;20045;-63
2023/09/28 04:07:34;;;;;;;12.75;9.15;;;16.50;99.90;;;;;;5057401;28;20084;-63
2023/09/28 04:10:00;;;;;;;12.27;7.03;;;16.50;99.90;;;;;;5053648;28;20083;-63
2023/09/28 04:12:27;;;;;;;12.90;7.20;;;16.50;99.90;;;;;;5053270;28;20072;-64
2023/09/28 04:14:52;;;;;;;12.82;8.10;;;16.40;99.90;;;;;;5053822;28;20452;-63
2023/09/28 04:17:18;;;;;;;12.20;7.43;;;16.40;99.90;;;;;;5053311;28;20036;-63
2023/09/28 04:19:44;;;;;;;11.15;7.60;;;16.40;99.90;;;;;;5052881;28;20041;-63
2023/09/28 04:22:10;;;;;;;12.07;8.50;;;16.40;99.90;;;;;;5052359;28;20037;-63
2023/09/28 04:24:35;;;;;;;12.45;8.82;;;16.40;99.90;;;;;;5053001;28;20045;-64
2023/09/28 04:27:01;;;;;;;12.68;8.45;;;16.30;99.90;;;;;;5053258;28;20048;-63
2023/09/28 04:29:27;;;;;;;12.88;8.68;;;16.30;99.90;;;;;;5052512;28;20032;-63
2023/09/28 04:31:54;;;;;;;10.95;8.13;;;16.30;99.90;;;;;;5053019;28;20124;-63
2023/09/28 04:34:20;;;;;;;12.70;8.75;;;16.30;99.90;;;;;;5052690;28;20079;-63
2023/09/28 04:36:46;;;;;;;12.88;6.80;;;16.30;99.90;;;;;;5052030;28;20070;-63
2023/09/28 04:39:13;;;;;;;12.27;7.22;;;16.30;99.90;;;;;;5052482;28;20494;-63
2023/09/28 04:41:39;;;;;;;11.75;6.20;;;16.30;99.90;;;;;;5053058;28;20084;-63
2023/09/28 04:44:09;;;;;;;11.00;6.05;;;16.30;99.90;;;;;;5068771;28;20481;-63
2023/09/28 04:46:35;;;;;;;11.40;5.32;;;16.40;99.90;;;;;;5072753;28;20480;-63
2023/09/28 04:49:01;;;;;;;9.07;4.40;;;16.40;99.90;;;;;;5072977;28;20093;-63
2023/09/28 04:51:29;;;;;;;15.02;4.40;;;16.50;99.90;;;;;;5071826;28;20056;-63
2023/09/28 04:53:55;;;;;;;10.55;3.95;;;16.50;99.90;;;;;;5063064;28;20493;-63
2023/09/28 04:56:21;;;;;;;10.45;4.15;;;16.50;99.90;;;;;;5035817;28;20048;-63
2023/09/28 04:58:46;;;;;;;14.07;3.88;;;16.50;99.90;;;;;;5051614;28;20099;-63
2023/09/28 05:01:12;;;;;;;12.95;3.92;;;16.50;99.90;;;;;;5068733;28;20109;-63
2023/09/28 05:03:38;;;;;;;11.27;4.18;;;16.50;99.90;;;;;;5058478;28;20120;-63
2023/09/28 05:06:05;;;;;;;10.52;3.85;;;16.50;99.90;;;;;;5053661;28;20044;-63
2023/09/28 05:08:31;;;;;;;13.27;3.58;;;16.50;99.90;;;;;;5054240;28;20049;-63
2023/09/28 05:10:57;;;;;;;17.40;4.63;;;16.50;99.90;;;;;;5052034;28;20037;-63
2023/09/28 05:13:28;;;;;;;16.58;4.72;;;16.50;99.90;;;;;;5052051;28;20037;-63
2023/09/28 05:15:54;;;;;;;11.55;3.78;;;16.50;99.90;;;;;;5052077;28;20037;-63
2023/09/28 05:18:20;;;;;;;16.25;3.90;;;16.40;99.90;;;;;;5052914;28;20127;-63
2023/09/28 05:20:45;;;;;;;13.18;4.53;;;16.40;99.90;;;;;;5065148;28;20037;-63
2023/09/28 05:23:11;;;;;;;12.82;4.00;;;16.30;99.90;;;;;;5033324;28;20038;-63
2023/09/28 05:25:37;;;;;;;11.57;4.53;;;16.30;99.90;;;;;;5064328;28;20037;-63
2023/09/28 05:28:04;;;;;;;17.10;4.88;;;16.20;99.90;;;;;;5065709;28;20059;-63
2023/09/28 05:30:30;;;;;;;16.45;4.10;;;16.20;99.90;;;;;;5040820;28;20064;-63
2023/09/28 05:32:56;;;;;;;12.77;4.50;;;16.20;99.90;;;;;;5084785;28;20044;-64
2023/09/28 05:35:23;;;;;;;20.23;5.03;;;16.20;99.90;;;;;;5068214;28;20052;-63
2023/09/28 05:37:49;;;;;;;21.95;4.85;;;16.10;99.90;;;;;;5051746;28;20072;-63
2023/09/28 05:40:16;;;;;;;15.70;4.57;;;16.10;99.90;;;;;;5051501;28;20547;-63
2023/09/28 05:42:42;;;;;;;16.30;4.05;;;16.10;99.90;;;;;;5047807;28;20049;-63
2023/09/28 05:45:09;;;;;;;15.35;4.18;;;16.00;99.90;;;;;;5066205;28;20049;-63
2023/09/28 05:47:35;;;;;;;15.85;4.40;;;16.00;99.90;;;;;;5070506;28;20120;-63
2023/09/28 05:50:02;;;;;;;17.33;4.47;;;15.90;99.90;;;;;;5054341;28;20087;-63
2023/09/28 05:52:28;;;;;;;20.10;5.00;;;16.00;99.90;;;;;;5068394;28;20049;-63
2023/09/28 05:54:54;;;;;;;13.18;5.15;;;16.00;99.90;;;;;;5051987;28;20082;-63
2023/09/28 05:57:22;;;;;;;19.50;5.43;;;16.00;99.90;;;;;;5052365;28;20119;-63
2023/09/28 05:59:48;;;;;;;20.98;6.35;;;16.00;99.90;;;;;;5051597;28;20517;-63
2023/09/28 06:02:17;;;;;;;19.17;5.32;;;16.00;99.90;;;;;;5063137;28;20039;-63
2023/09/28 06:04:43;;;;;;;29.67;5.88;;;16.10;99.90;;;;;;5063829;28;20128;-63
2023/09/28 06:07:12;;;;;;;15.48;4.38;;;16.00;99.90;;;;;;5056835;28;20112;-63
2023/09/28 06:09:38;;;;;;;13.55;3.92;;;16.00;99.90;;;;;;5051233;28;20043;-63
2023/09/28 06:12:05;;;;;;;23.00;5.95;;;16.00;99.90;;;;;;5051286;28;20557;-63
2023/09/28 06:14:30;;;;;;;22.58;5.53;;;16.10;99.90;;;;;;5050812;28;20049;-63
2023/09/28 06:16:56;;;;;;;20.23;4.85;;;16.00;99.90;;;;;;5051253;28;20098;-63
2023/09/28 06:19:22;;;;;;;16.65;5.25;;;16.10;99.90;;;;;;5067959;28;20040;-63
2023/09/28 06:21:47;;;;;;;18.25;4.40;;;16.10;99.90;;;;;;5069938;28;20509;-63
2023/09/28 06:24:13;;;;;;;17.45;5.22;;;16.20;99.90;;;;;;5065743;28;20040;-63
2023/09/28 06:26:39;;;;;;;18.92;4.97;;;16.20;99.90;;;;;;5050672;28;20043;-63
2023/09/28 06:29:05;;;;;;;17.77;5.20;;;16.20;99.90;;;;;;5053166;28;20385;-63
2023/09/28 06:31:30;;;;;;;16.17;4.20;;;16.30;99.90;;;;;;5052192;28;20037;-63
2023/09/28 06:33:56;;;;;;;20.13;5.82;;;16.20;99.90;;;;;;5052351;28;20037;-63
2023/09/28 06:36:24;;;;;;;21.83;5.65;;;16.20;99.90;;;;;;5050150;28;20051;-63
2023/09/28 06:38:50;;;;;;;22.85;5.50;;;16.20;99.90;;;;;;5052358;28;21754;-63
2023/09/28 06:41:16;;;;;;;18.48;5.10;;;16.30;99.90;;;;;;5068562;28;20033;-63
2023/09/28 06:43:42;;;;;;;22.98;6.05;;;16.30;99.90;;;;;;5054940;28;20069;-63
2023/09/28 06:46:08;;;;;;;17.48;4.47;;;16.30;99.90;;;;;;5061344;28;20126;-63
2023/09/28 06:48:35;;;;;;;18.17;6.05;;;16.30;99.90;;;;;;5051990;28;20091;-63
2023/09/28 06:51:01;;;;;;;20.88;6.30;;;16.30;99.90;;;;;;5049975;28;20494;-64
2023/09/28 06:53:27;;;;;;;17.02;5.68;;;16.30;99.90;;;;;;5057370;28;20049;-63
2023/09/28 06:55:54;;;;;;;20.13;6.03;;;16.40;99.90;;;;;;5054282;28;20517;-64
2023/09/28 06:58:21;;;;;;;21.80;5.93;;;16.40;99.90;;;;;;5049814;28;20052;-63
2023/09/28 07:00:47;;;;;;;19.30;5.93;;;16.40;99.90;;;;;;5050168;28;20052;-63
2023/09/28 07:03:14;;;;;;;14.68;5.10;;;16.50;99.90;;;;;;5057131;28;20374;-63
2023/09/28 07:05:40;;;;;;;20.95;5.47;;;16.50;99.90;;;;;;5064727;28;20052;-63
2023/09/28 07:08:06;;;;;;;17.35;5.40;;;16.60;99.90;;;;;;5058640;28;20041;-64
2023/09/28 07:10:36;;;;;;;18.08;4.95;;;16.70;99.90;;;;;;5057039;28;20041;-63
2023/09/28 07:13:04;;;;;;;31.98;6.78;;;16.70;99.90;;;;;;5064433;28;20508;-64
2023/09/28 07:15:33;;;;;;;23.52;6.18;;;16.70;99.90;;;;;;5032445;28;20069;-64
2023/09/28 07:18:03;;;;;;;19.08;5.68;;;16.80;99.90;;;;;;5046010;28;20039;-63
2023/09/28 07:20:29;;;;;;;23.55;6.05;;;16.90;99.90;;;;;;5057272;28;20049;-64
2023/09/28 07:22:56;;;;;;;20.83;6.13;;;16.90;99.90;;;;;;5052112;28;20045;-64
2023/09/28 07:25:22;;;;;;;17.70;5.68;;;16.90;99.90;;;;;;5046169;28;20067;-63
2023/09/28 07:27:52;;;;;;;17.92;5.57;;;16.90;99.90;;;;;;5055074;28;20093;-63
2023/09/28 07:30:22;;;;;;;26.73;6.07;;;17.00;99.90;;;;;;5071258;28;20470;-63
2023/09/28 07:32:49;;;;;;;17.77;5.70;;;17.00;99.90;;;;;;5061408;28;20057;-63
2023/09/28 07:35:16;;;;;;;18.23;5.13;;;17.00;99.90;;;;;;5062822;28;20095;-63
2023/09/28 07:37:43;;;;;;;16.85;5.35;;;17.10;99.90;;;;;;5071343;28;20044;-63
2023/09/28 07:40:12;;;;;;;25.60;6.00;;;17.10;99.90;;;;;;5058644;28;20045;-63
2023/09/28 07:42:43;;;;;;;21.52;5.60;;;17.10;99.90;;;;;;5059401;28;20059;-63
2023/09/28 07:45:11;;;;;;;23.60;6.88;;;17.20;99.90;;;;;;5060656;28;20219;-64
2023/09/28 07:47:38;;;;;;;17.40;5.20;;;17.20;99.90;;;;;;5062485;28;20048;-63
2023/09/28 07:50:05;;;;;;;18.52;4.22;;;17.20;99.90;;;;;;5051032;28;20064;-63
2023/09/28 07:52:31;;;;;;;23.60;6.18;;;17.30;99.90;;;;;;5033707;28;20052;-63
2023/09/28 07:54:56;;;;;;;20.67;5.82;;;17.40;99.90;;;;;;5052690;28;20060;-63
2023/09/28 07:57:22;;;;;;;19.05;4.80;;;17.40;99.90;;;;;;5051257;28;20045;-63
2023/09/28 07:59:48;;;;;;;19.65;5.50;;;17.50;99.90;;;;;;5050963;28;20032;-63
2023/09/28 08:02:14;;;;;;;15.65;5.45;;;17.50;99.90;;;;;;5049121;28;20557;-64
2023/09/28 08:04:40;;;;;;;20.58;5.82;;;17.50;99.90;;;;;;5049926;28;20128;-64
2023/09/28 08:07:06;;;;;;;18.13;6.32;;;17.60;99.90;;;;;;5053234;28;20418;-64
2023/09/28 08:09:33;;;;;;;23.02;4.80;;;17.60;99.90;;;;;;5061616;28;20049;-64
2023/09/28 08:11:59;;;;;;;13.85;4.25;;;17.60;99.90;;;;;;5086146;28;20043;-64
2023/09/28 08:14:25;;;;;;;19.67;5.72;;;17.70;99.90;;;;;;5050580;28;20047;-64
2023/09/28 08:16:51;;;;;;;19.60;4.78;;;17.70;99.90;;;;;;5050701;28;20128;-63
2023/09/28 08:19:18;;;;;;;15.75;5.45;;;17.80;99.90;;;;;;5050594;28;20045;-64
2023/09/28 08:21:45;;;;;;;17.48;4.90;;;17.80;99.90;;;;;;5049682;28;20111;-64
2023/09/28 08:24:12;;;;;;;23.35;5.80;;;17.90;99.90;;;;;;5060200;28;20044;-63
2023/09/28 08:26:38;;;;;;;18.85;6.13;;;17.90;99.90;;;;;;5069997;28;20087;-63
2023/09/28 08:29:04;;;;;;;18.00;5.90;;;18.00;99.90;;;;;;5053572;28;20037;-64
2023/09/28 08:31:32;;;;;;;17.13;5.50;;;18.10;99.90;;;;;;5049939;28;20970;-63
2023/09/28 08:33:59;;;;;;;12.88;4.05;;;18.10;99.90;;;;;;5051848;28;20087;-64
2023/09/28 08:36:25;;;;;;;15.85;4.18;;;18.10;99.90;;;;;;5060793;28;20538;-64
2023/09/28 08:38:51;;;;;;;23.92;5.32;;;18.10;99.90;;;;;;5038771;28;20480;-64
2023/09/28 08:41:25;;;;;;;15.88;5.45;;;18.10;99.90;;;;;;5058763;28;20041;-64
2023/09/28 08:43:56;;;;;;;17.00;4.37;;;18.20;99.90;;;;;;5044282;28;20048;-63
2023/09/28 08:46:24;;;;;;;22.98;5.70;;;18.10;99.90;;;;;;5062716;28;20287;-63
2023/09/28 08:48:51;;;;;;;14.05;3.95;;;18.10;99.90;;;;;;5056196;28;20029;-64
2023/09/28 08:51:16;;;;;;;17.00;4.43;;;18.10;99.90;;;;;;5049945;28;20513;-63
2023/09/28 08:53:43;;;;;;;14.27;4.78;;;18.10;99.90;;;;;;5050576;28;20045;-64
2023/09/28 08:56:10;;;;;;;17.55;4.38;;;18.10;99.90;;;;;;5049586;28;20055;-63
2023/09/28 08:58:37;;;;;;;14.40;3.95;;;18.10;99.90;;;;;;5051562;28;20429;-63
2023/09/28 09:01:04;;;;;;;17.02;4.75;;;18.20;99.90;;;;;;5050553;28;20049;-63
2023/09/28 09:03:32;;;;;;;20.38;5.20;;;18.20;99.90;;;;;;5049722;28;20087;-63
2023/09/28 09:05:58;;;;;;;16.67;4.38;;;18.20;99.90;;;;;;5062461;28;20359;-63
2023/09/28 09:08:27;;;;;;;17.52;5.07;;;18.20;99.90;;;;;;5055843;28;20075;-63
2023/09/28 09:10:55;;;;;;;19.15;4.38;;;18.20;99.90;;;;;;5034506;28;20087;-63
2023/09/28 09:13:21;;;;;;;15.23;4.00;;;18.20;99.90;;;;;;5035733;28;20071;-63
2023/09/28 09:15:47;;;;;;;17.42;4.38;;;18.10;99.90;;;;;;5052239;28;20477;-64
2023/09/28 09:18:19;;;;;;;19.27;4.28;;;18.10;99.90;;;;;;5041019;28;20025;-65
2023/09/28 09:20:49;;;;;;;17.98;4.18;;;18.10;99.90;;;;;;5071549;28;20052;-65
2023/09/28 09:23:16;;;;;;;13.48;4.60;;;18.10;99.90;;;;;;5057245;28;20397;-64
2023/09/28 09:25:47;;;;;;;17.73;5.32;;;18.10;99.90;;;;;;5050085;28;20127;-64
2023/09/28 09:28:30;;;;;;;16.15;5.65;;;18.10;99.90;;;;;;5058298;28;20429;-64
2023/09/28 09:30:56;;;;;;;17.27;5.00;;;18.20;99.90;;;;;;5065833;28;20069;-64
2023/09/28 09:33:25;;;;;;;17.50;5.10;;;18.20;99.90;;;;;;5045527;28;20040;-64
2023/09/28 09:35:52;;;;;;;20.35;5.72;;;18.30;99.90;;;;;;5067024;28;20037;-64
2023/09/28 09:38:28;;;;;;;14.93;4.72;;;18.30;99.90;;;;;;5050803;28;20051;-64
2023/09/28 09:41:01;;;;;;;19.15;5.22;;;18.40;99.90;;;;;;5051988;28;20041;-64
2023/09/28 09:43:46;;;;;;;17.48;4.85;;;18.50;99.90;;;;;;5052440;28;20056;-64
2023/09/28 09:46:11;;;;;;;16.45;4.90;;;18.50;99.90;;;;;;5050223;28;20115;-64
2023/09/28 09:48:42;;;;;;;12.77;3.20;;;18.50;99.90;;;;;;5051372;28;20120;-64
2023/09/28 09:51:17;;;;;;;20.17;5.50;;;18.60;99.90;;;;;;5060991;28;20052;-64
2023/09/28 09:53:44;;;;;;;15.77;4.82;;;18.60;99.90;;;;;;5055584;28;20040;-64
2023/09/28 09:56:11;;;;;;;16.20;3.88;;;18.60;99.90;;;;;;5052468;28;20033;-64
2023/09/28 09:58:48;;;;;;;16.88;3.97;;;18.60;99.90;;;;;;5064425;28;20505;-64
2023/09/28 10:01:18;;;;;;;17.65;5.15;;;18.70;99.90;;;;;;5048964;28;20098;-64
2023/09/28 10:03:51;;;;;;;15.90;4.97;;;18.70;99.90;;;;;;5051425;28;20371;-64
2023/09/28 10:06:19;;;;;;;18.07;3.87;;;18.80;99.90;;;;;;5050664;28;20083;-64
2023/09/28 10:08:46;;;;;;;13.95;4.50;;;18.80;99.90;;;;;;5050930;28;20037;-64
2023/09/28 10:11:13;;;;;;;17.30;4.22;;;18.80;99.90;;;;;;5051972;28;20393;-64
2023/09/28 10:13:39;;;;;;;11.90;4.40;;;18.80;99.90;;;;;;5066234;28;20048;-64
2023/09/28 10:16:07;;;;;;;17.95;4.78;;;18.90;99.90;;;;;;5056380;28;20041;-65
2023/09/28 10:18:35;;;;;;;18.15;4.88;;;18.90;99.90;;;;;;5050644;28;20037;-64
2023/09/28 10:21:02;;;;;;;17.30;4.28;;;19.00;99.90;;;;;;5050525;28;20044;-65
2023/09/28 10:23:31;;;;;;;15.07;4.05;;;19.00;99.90;;;;;;5058651;28;20115;-63
2023/09/28 10:26:16;;;;;;;14.15;3.97;;;19.10;99.90;;;;;;5064123;28;20512;-64
2023/09/28 10:29:03;;;;;;;15.23;4.03;;;19.10;99.90;;;;;;5059605;28;20044;-63
2023/09/28 10:31:30;;;;;;;15.70;4.63;;;19.10;99.90;;;;;;5057695;28;20036;-64
2023/09/28 10:34:06;;;;;;;15.80;4.20;;;19.10;99.90;;;;;;5071645;28;20037;-64
2023/09/28 10:36:33;;;;;;;15.90;4.50;;;19.10;99.90;;;;;;5052121;28;20551;-63
2023/09/28 10:39:09;;;;;;;13.77;4.40;;;19.20;99.90;;;;;;5037932;28;20051;-60
2023/09/28 10:41:39;;;;;;;11.07;3.30;;;19.20;99.90;;;;;;5064692;28;20401;-63
2023/09/28 10:44:16;;;;;;;17.23;4.47;;;19.20;99.90;;;;;;5071920;28;20036;-63
2023/09/28 10:46:42;;;;;;;17.05;3.70;;;19.30;99.90;;;;;;5070143;28;20040;-63
2023/09/28 10:49:08;;;;;;;20.35;4.45;;;19.30;99.90;;;;;;5069727;28;20518;-63
2023/09/28 10:51:34;;;;;;;15.27;4.22;;;19.30;99.90;;;;;;5071879;28;20048;-64
2023/09/28 10:54:05;;;;;;;15.85;3.97;;;19.30;99.90;;;;;;5070777;28;20093;-63
2023/09/28 10:56:31;;;;;;;15.40;4.25;;;19.30;99.90;;;;;;5069588;28;20040;-64
2023/09/28 10:58:57;;;;;;;16.10;4.82;;;19.30;99.90;;;;;;5070803;28;20074;-63
2023/09/28 11:01:24;;;;;;;8.95;3.20;;;19.30;99.90;;;;;;5070568;28;20040;-64
2023/09/28 11:03:50;;;;;;;11.82;3.45;;;19.20;99.90;;;;;;5069551;28;20108;-63
2023/09/28 11:06:17;;;;;;;11.80;3.55;;;19.20;99.90;;;;;;5070685;28;20167;-63
2023/09/28 11:08:43;;;;;;;16.40;4.55;;;19.30;99.90;;;;;;5070517;28;20071;-63
2023/09/28 11:11:09;;;;;;;23.70;5.05;;;19.20;99.90;;;;;;5069648;28;20044;-63
2023/09/28 11:13:35;;;;;;;13.10;4.05;;;19.30;99.90;;;;;;5070361;28;20040;-63
2023/09/28 11:16:01;;;;;;;13.60;3.83;;;19.20;99.90;;;;;;5070455;28;20423;-64
2023/09/28 11:18:27;;;;;;;13.60;4.57;;;19.20;99.90;;;;;;5070830;28;20043;-63
2023/09/28 11:20:59;;;;;;;15.38;4.18;;;19.10;99.90;;;;;;5070454;28;20047;-63
2023/09/28 11:23:25;;;;;;;12.77;4.40;;;19.00;99.90;;;;;;5069545;28;20497;-63
2023/09/28 11:25:52;;;;;;;12.10;3.40;;;19.00;99.90;;;;;;5071487;28;20165;-63
2023/09/28 11:28:19;;;;;;;13.13;3.80;;;19.00;99.90;;;;;;5070332;28;20040;-63
2023/09/28 11:30:44;;;;;;;16.00;3.95;;;19.00;99.90;;;;;;5070571;28;20045;-63
2023/09/28 11:33:11;;;;;;;14.43;3.92;;;19.00;99.90;;;;;;5070285;28;20106;-63
2023/09/28 11:35:38;;;;;;;15.27;4.10;;;18.90;99.90;;;;;;5103873;28;20052;-63
2023/09/28 11:38:10;;;;;;;16.73;4.72;;;18.90;99.90;;;;;;5069822;28;20036;-64
2023/09/28 11:40:39;;;;;;;17.38;4.07;;;18.90;99.90;;;;;;5070162;28;20076;-63
2023/09/28 11:43:08;;;;;;;15.30;4.15;;;18.90;99.90;;;;;;5070402;28;20086;-63
2023/09/28 11:45:34;;;;;;;15.70;3.92;;;18.90;99.90;;;;;;5070412;28;20098;-64
2023/09/28 11:48:09;;;;;;;21.45;3.88;;;18.90;99.90;;;;;;5072923;28;20441;-63
2023/09/28 11:50:36;;;;;;;12.43;4.55;;;18.90;99.90;;;;;;5073543;28;20064;-63
2023/09/28 11:53:10;;;;;;;15.70;4.00;;;19.00;99.90;;;;;;5073248;28;20528;-63
2023/09/28 11:55:37;;;;;;;10.55;3.40;;;19.00;99.90;;;;;;5073490;28;20102;-63
2023/09/28 11:58:06;;;;;;;18.25;4.70;;;19.00;99.90;;;;;;5075267;28;20063;-63
2023/09/28 12:00:32;;;;;;;16.25;3.38;;;19.00;99.90;;;;;;5072797;28;20116;-63
2023/09/28 12:02:58;;;;;;;9.80;3.60;;;19.00;99.90;;;;;;5073681;28;20452;-63
2023/09/28 12:05:23;;;;;;;12.57;3.70;;;19.00;99.90;;;;;;5073718;28;20145;-63
2023/09/28 12:07:49;;;;;;;14.60;3.38;;;19.00;99.90;;;;;;5072669;28;20528;-63
2023/09/28 12:10:15;;;;;;;13.38;4.72;;;18.90;99.90;;;;;;5074529;28;20051;-63
2023/09/28 12:12:41;;;;;;;14.50;4.75;;;19.00;99.90;;;;;;5072550;28;20036;-63
2023/09/28 12:15:10;;;;;;;13.48;4.32;;;19.00;99.90;;;;;;5073278;28;20090;-63
2023/09/28 12:17:40;;;;;;;15.93;4.38;;;19.00;99.90;;;;;;5073455;28;20040;-63
2023/09/28 12:20:14;;;;;;;14.25;4.80;;;19.10;99.90;;;;;;5072743;28;20077;-63
2023/09/28 12:22:40;;;;;;;16.08;4.53;;;19.10;99.90;;;;;;5069233;28;20097;-66
2023/09/28 12:25:08;;;;;;;20.58;5.13;;;19.10;99.90;;;;;;5063323;28;20080;-67
2023/09/28 12:27:38;;;;;;;21.25;5.15;;;19.10;99.90;;;;;;5059330;28;20037;-65
2023/09/28 12:30:06;;;;;;;12.43;4.55;;;19.10;99.90;;;;;;5057910;28;20083;-64
2023/09/28 12:32:32;;;;;;;15.82;3.85;;;19.10;99.90;;;;;;5058947;28;20052;-64
2023/09/28 12:35:01;;;;;;;15.90;4.30;;;19.10;99.90;;;;;;5051062;28;20068;-64
2023/09/28 12:37:27;;;;;;;18.73;4.63;;;19.10;99.90;;;;;;5048716;28;20068;-64
2023/09/28 12:39:53;;;;;;;13.95;4.05;;;19.10;99.90;;;;;;5052256;28;20519;-64